createdAt,value
2023-04-02T00:00:18.556Z,10.37
2023-04-02T00:02:49.422Z,9.40
2023-04-02T00:05:51.361Z,9.43
2023-04-02T00:08:26.407Z,9.67
2023-04-02T00:10:57.962Z,9.07
2023-04-02T00:13:32.894Z,9.07
2023-04-02T00:16:03.326Z,8.23
2023-04-02T00:18:34.004Z,7.97
2023-04-02T00:21:10.255Z,6.90
2023-04-02T00:23:40.136Z,7.70
2023-04-02T00:26:23.119Z,9.07
2023-04-02T00:28:54.259Z,10.37
2023-04-02T00:31:23.327Z,9.23
2023-04-02T00:33:52.030Z,9.57
2023-04-02T00:36:22.125Z,9.30
2023-04-02T00:38:50.686Z,8.60
2023-04-02T00:41:24.892Z,8.00
2023-04-02T00:43:54.679Z,7.93
2023-04-02T00:46:30.089Z,7.43
2023-04-02T00:49:03.704Z,8.10
2023-04-02T00:51:36.504Z,7.90
2023-04-02T00:54:07.582Z,7.30
2023-04-02T00:56:41.523Z,6.60
2023-04-02T00:59:20.876Z,7.20
2023-04-02T01:01:54.474Z,7.73
2023-04-02T01:04:34.110Z,6.43
2023-04-02T01:07:06.690Z,6.37
2023-04-02T01:09:55.787Z,6.10
2023-04-02T01:12:39.017Z,5.63
2023-04-02T01:15:13.730Z,6.27
2023-04-02T01:18:01.716Z,6.00
2023-04-02T01:21:09.217Z,5.83
2023-04-02T01:23:45.290Z,6.30
2023-04-02T01:26:19.874Z,5.80
2023-04-02T01:29:01.928Z,6.03
2023-04-02T01:31:33.271Z,5.97
2023-04-02T01:34:03.263Z,6.17
2023-04-02T01:36:40.715Z,5.47
2023-04-02T01:39:19.262Z,5.57
2023-04-02T01:41:51.304Z,5.40
2023-04-02T01:44:26.963Z,6.10
2023-04-02T01:46:55.554Z,5.90
2023-04-02T01:49:23.881Z,6.20
2023-04-02T01:51:55.085Z,5.67
2023-04-02T01:54:24.096Z,5.37
2023-04-02T01:56:52.761Z,5.80
2023-04-02T01:59:24.267Z,5.77
2023-04-02T02:01:58.273Z,5.90
2023-04-02T02:04:29.221Z,6.17
2023-04-02T02:07:00.721Z,5.53
2023-04-02T02:09:31.684Z,5.77
2023-04-02T02:12:01.776Z,6.40
2023-04-02T02:14:32.522Z,5.43
2023-04-02T02:17:04.326Z,5.97
2023-04-02T02:19:36.911Z,6.00
2023-04-02T02:22:11.957Z,5.60
2023-04-02T02:24:41.113Z,6.20
2023-04-02T02:27:37.870Z,5.63
2023-04-02T02:30:12.665Z,5.33
2023-04-02T02:32:47.785Z,5.80
2023-04-02T02:35:21.590Z,5.87
2023-04-02T02:37:56.238Z,5.83
2023-04-02T02:40:33.118Z,5.77
2023-04-02T02:43:04.832Z,6.63
2023-04-02T02:45:38.917Z,6.17
2023-04-02T02:48:12.344Z,6.30
2023-04-02T02:50:41.274Z,6.33
2023-04-02T02:53:18.079Z,6.37
2023-04-02T02:55:47.737Z,5.90
2023-04-02T02:58:19.306Z,6.20
2023-04-02T03:00:50.542Z,6.20
2023-04-02T03:03:22.200Z,5.77
2023-04-02T03:05:56.405Z,5.67
2023-04-02T03:08:31.004Z,5.90
2023-04-02T03:11:06.286Z,5.87
2023-04-02T03:13:36.866Z,5.60
2023-04-02T03:16:13.614Z,5.40
2023-04-02T03:18:46.596Z,5.37
2023-04-02T03:21:29.619Z,5.20
2023-04-02T03:24:01.920Z,5.07
2023-04-02T03:26:35.088Z,5.13
2023-04-02T03:29:07.526Z,5.30
2023-04-02T03:31:41.043Z,4.93
2023-04-02T03:34:13.988Z,5.57
2023-04-02T03:36:48.967Z,5.30
2023-04-02T03:39:23.999Z,5.43
2023-04-02T03:41:56.092Z,5.23
2023-04-02T03:44:29.850Z,5.00
2023-04-02T03:47:04.927Z,5.03
2023-04-02T03:49:37.269Z,4.90
2023-04-02T03:52:11.568Z,5.00
2023-04-02T03:54:40.835Z,5.17
2023-04-02T03:57:29.185Z,5.77
2023-04-02T04:00:02.440Z,5.00
2023-04-02T04:02:42.114Z,5.00
2023-04-02T04:05:23.192Z,5.13
2023-04-02T04:07:54.491Z,5.10
2023-04-02T04:10:26.861Z,5.67
2023-04-02T04:12:58.839Z,5.40
2023-04-02T04:15:32.181Z,5.70
2023-04-02T04:18:10.524Z,5.30
2023-04-02T04:20:51.197Z,4.63
2023-04-02T04:23:25.798Z,5.87
2023-04-02T04:25:59.016Z,4.97
2023-04-02T04:28:33.874Z,5.27
2023-04-02T04:31:07.223Z,5.33
2023-04-02T04:33:42.526Z,5.77
2023-04-02T04:36:27.740Z,5.20
2023-04-02T04:38:59.444Z,4.90
2023-04-02T04:41:31.886Z,5.30
2023-04-02T04:44:07.810Z,4.73
2023-04-02T04:46:41.348Z,5.43
2023-04-02T04:49:16.344Z,5.77
2023-04-02T04:51:49.118Z,5.80
2023-04-02T04:54:18.641Z,5.97
2023-04-02T04:56:49.256Z,6.27
2023-04-02T04:59:23.045Z,5.87
2023-04-02T05:01:57.811Z,5.60
2023-04-02T05:04:32.644Z,5.87
2023-04-02T05:07:07.275Z,4.40
2023-04-02T05:09:39.228Z,4.87
2023-04-02T05:12:18.056Z,4.67
2023-04-02T05:14:52.458Z,4.67
2023-04-02T05:17:28.015Z,4.07
2023-04-02T05:20:07.132Z,4.43
2023-04-02T05:22:43.547Z,4.50
2023-04-02T05:25:18.087Z,4.30
2023-04-02T05:27:52.605Z,4.50
2023-04-02T05:30:47.131Z,4.37
2023-04-02T05:33:27.375Z,4.93
2023-04-02T05:36:01.564Z,4.37
2023-04-02T05:38:33.268Z,4.40
2023-04-02T05:41:04.487Z,4.50
2023-04-02T05:43:35.691Z,3.73
2023-04-02T05:46:09.739Z,4.53
2023-04-02T05:48:43.323Z,4.50
2023-04-02T05:51:18.289Z,5.20
2023-04-02T05:53:52.444Z,4.43
2023-04-02T05:56:24.637Z,5.30
2023-04-02T05:58:55.868Z,4.30
2023-04-02T06:01:34.550Z,5.10
2023-04-02T06:04:08.350Z,5.03
2023-04-02T06:06:56.609Z,4.60
2023-04-02T06:09:37.884Z,4.80
2023-04-02T06:12:19.086Z,4.47
2023-04-02T06:14:47.743Z,4.30
2023-04-02T06:17:17.292Z,4.10
2023-04-02T06:19:46.705Z,4.13
2023-04-02T06:22:25.150Z,3.67
2023-04-02T06:24:59.361Z,3.87
2023-04-02T06:27:28.526Z,4.10
2023-04-02T06:30:00.844Z,3.93
2023-04-02T06:32:29.026Z,3.70
2023-04-02T06:34:57.180Z,3.90
2023-04-02T06:37:32.326Z,4.13
2023-04-02T06:40:01.627Z,4.40
2023-04-02T06:42:35.312Z,3.50
2023-04-02T06:45:04.209Z,3.70
2023-04-02T06:47:37.460Z,4.00
2023-04-02T06:50:09.340Z,4.27
2023-04-02T06:52:45.251Z,3.70
2023-04-02T06:55:30.910Z,3.33
2023-04-02T06:57:59.205Z,3.23
2023-04-02T07:00:34.158Z,3.43
2023-04-02T07:03:04.207Z,3.43
2023-04-02T07:05:32.341Z,3.57
2023-04-02T07:08:01.942Z,3.07
2023-04-02T07:10:29.909Z,3.43
2023-04-02T07:12:57.912Z,3.40
2023-04-02T07:15:25.897Z,3.37
2023-04-02T07:17:57.138Z,3.23
2023-04-02T07:20:28.918Z,3.30
2023-04-02T07:22:57.592Z,3.30
2023-04-02T07:25:27.974Z,3.17
2023-04-02T07:27:56.392Z,2.80
2023-04-02T07:30:24.851Z,3.63
2023-04-02T07:32:52.862Z,3.03
2023-04-02T07:35:20.874Z,3.47
2023-04-02T07:37:48.915Z,3.63
2023-04-02T07:40:20.675Z,3.20
2023-04-02T07:42:50.297Z,3.27
2023-04-02T07:45:18.315Z,3.10
2023-04-02T07:47:46.367Z,3.03
2023-04-02T07:50:14.681Z,3.03
2023-04-02T07:52:43.352Z,3.40
2023-04-02T07:55:12.601Z,3.20
2023-04-02T07:57:43.085Z,2.90
2023-04-02T08:00:15.172Z,3.63
2023-04-02T08:02:43.352Z,3.17
2023-04-02T08:05:12.275Z,3.07
2023-04-02T08:07:41.545Z,2.90
2023-04-02T08:10:11.951Z,3.00
2023-04-02T08:12:40.330Z,2.90
2023-04-02T08:15:09.557Z,2.70
2023-04-02T08:17:38.978Z,2.93
2023-04-02T08:20:10.704Z,2.77
2023-04-02T08:22:38.669Z,2.40
2023-04-02T08:25:07.932Z,3.13
2023-04-02T08:27:36.262Z,2.93
2023-04-02T08:30:04.734Z,2.93
2023-04-02T08:32:32.731Z,2.40
2023-04-02T08:35:02.709Z,2.80
2023-04-02T08:37:30.782Z,3.30
2023-04-02T08:39:58.882Z,3.23
2023-04-02T08:42:33.967Z,4.70
2023-04-02T08:45:24.329Z,3.30
2023-04-02T08:47:56.791Z,2.73
2023-04-02T08:50:31.628Z,2.47
2023-04-02T08:53:01.568Z,2.70
2023-04-02T08:55:38.224Z,2.77
2023-04-02T08:58:16.573Z,2.70
2023-04-02T09:00:46.863Z,2.13
2023-04-02T09:03:19.632Z,2.67
2023-04-02T09:05:51.498Z,2.60
2023-04-02T09:08:21.820Z,2.30
2023-04-02T09:10:54.731Z,2.10
2023-04-02T09:13:25.922Z,2.60
2023-04-02T09:15:59.758Z,2.23
2023-04-02T09:18:32.046Z,2.40
2023-04-02T09:21:04.885Z,2.40
2023-04-02T09:23:33.099Z,2.87
2023-04-02T09:26:04.287Z,2.33
2023-04-02T09:28:33.402Z,2.40
2023-04-02T09:31:10.217Z,2.70
2023-04-02T09:33:46.337Z,2.33
2023-04-02T09:36:37.225Z,2.50
2023-04-02T09:39:17.045Z,3.00
2023-04-02T09:41:50.221Z,2.93
2023-04-02T09:44:30.511Z,2.80
2023-04-02T09:47:03.689Z,2.67
2023-04-02T09:49:33.867Z,2.63
2023-04-02T09:52:21.611Z,3.33
2023-04-02T09:55:18.260Z,3.37
2023-04-02T09:57:47.968Z,2.40
2023-04-02T10:00:31.369Z,2.97
2023-04-02T10:03:06.935Z,2.80
2023-04-02T10:08:17.423Z,2.37
2023-04-02T10:10:49.413Z,2.53
2023-04-02T10:13:28.718Z,2.50
2023-04-02T10:16:01.680Z,2.90
2023-04-02T10:18:40.672Z,3.20
2023-04-02T10:21:11.499Z,2.87
2023-04-02T10:23:41.730Z,2.67
2023-04-02T10:26:33.094Z,3.13
2023-04-02T10:29:16.363Z,3.33
2023-04-02T10:31:56.292Z,2.80
2023-04-02T10:34:30.994Z,2.50
2023-04-02T10:37:06.046Z,2.60
2023-04-02T10:39:42.349Z,2.37
2023-04-02T10:42:19.901Z,2.47
2023-04-02T10:44:54.209Z,2.20
2023-04-02T10:47:35.668Z,2.20
2023-04-02T10:50:25.169Z,2.13
2023-04-02T10:52:59.114Z,2.17
2023-04-02T10:55:33.403Z,2.00
2023-04-02T10:58:09.159Z,2.33
2023-04-02T11:00:43.832Z,2.23
2023-04-02T11:03:17.712Z,2.77
2023-04-02T11:05:48.760Z,2.10
2023-04-02T11:08:20.956Z,2.90
2023-04-02T11:10:54.156Z,1.97
2023-04-02T11:13:26.920Z,1.80
2023-04-02T11:15:55.568Z,2.20
2023-04-02T11:18:26.883Z,1.57
2023-04-02T11:21:03.669Z,1.70
2023-04-02T11:23:38.868Z,1.77
2023-04-02T11:26:44.562Z,1.93
2023-04-02T11:29:21.255Z,1.80
2023-04-02T11:31:51.273Z,1.40
2023-04-02T11:35:03.412Z,1.67
2023-04-02T11:37:38.264Z,1.70
2023-04-02T11:40:44.884Z,2.03
2023-04-02T11:43:49.179Z,1.90
2023-04-02T11:46:45.492Z,1.70
2023-04-02T11:49:57.231Z,1.50
2023-04-02T11:52:28.908Z,1.60
2023-04-02T11:55:07.093Z,1.57
2023-04-02T11:57:51.303Z,1.70
2023-04-02T12:01:03.709Z,1.20
2023-04-02T12:04:00.407Z,1.83
2023-04-02T12:06:39.797Z,2.00
2023-04-02T12:09:19.484Z,1.67
2023-04-02T12:11:51.921Z,1.90
2023-04-02T12:14:46.738Z,1.43
2023-04-02T12:17:25.221Z,1.30
2023-04-02T12:19:55.380Z,2.17
2023-04-02T12:22:25.880Z,1.47
2023-04-02T12:24:59.640Z,1.50
2023-04-02T12:27:29.699Z,1.87
2023-04-02T12:30:11.453Z,1.43
2023-04-02T12:32:41.109Z,1.60
2023-04-02T12:35:31.136Z,1.53
2023-04-02T12:37:59.279Z,1.43
2023-04-02T12:40:27.885Z,1.70
2023-04-02T12:42:56.130Z,1.90
2023-04-02T12:45:29.356Z,1.33
2023-04-02T12:48:01.784Z,1.50
2023-04-02T12:50:30.137Z,1.53
2023-04-02T12:53:00.868Z,1.80
2023-04-02T12:55:30.645Z,1.60
2023-04-02T12:57:59.965Z,1.70
2023-04-02T13:00:38.009Z,1.60
2023-04-02T13:03:19.325Z,1.43
2023-04-02T13:05:51.790Z,1.73
2023-04-02T13:08:23.258Z,1.80
2023-04-02T13:10:55.762Z,1.80
2023-04-02T13:13:28.580Z,1.67
2023-04-02T13:16:06.570Z,1.50
2023-04-02T13:18:38.007Z,2.03
2023-04-02T13:21:07.085Z,1.67
2023-04-02T13:23:37.853Z,1.70
2023-04-02T13:26:17.682Z,1.40
2023-04-02T13:28:56.339Z,1.70
2023-04-02T13:31:24.378Z,2.10
2023-04-02T13:33:53.772Z,1.93
2023-04-02T13:36:21.801Z,2.10
2023-04-02T13:38:49.931Z,1.63
2023-04-02T13:41:22.759Z,1.67
2023-04-02T13:43:51.874Z,1.90
2023-04-02T13:46:23.460Z,1.57
2023-04-02T13:48:54.429Z,1.83
2023-04-02T13:51:24.880Z,1.73
2023-04-02T13:53:56.801Z,1.60
2023-04-02T13:56:25.083Z,1.30
2023-04-02T13:58:53.356Z,1.50
2023-04-02T14:01:24.573Z,1.63
2023-04-02T14:03:55.653Z,1.23
2023-04-02T14:06:31.797Z,1.60
2023-04-02T14:09:05.296Z,1.50
2023-04-02T14:11:47.841Z,1.63
2023-04-02T14:14:37.424Z,1.60
2023-04-02T14:17:15.298Z,1.17
2023-04-02T14:20:03.221Z,1.57
2023-04-02T14:22:44.888Z,1.80
2023-04-02T14:25:19.369Z,1.30
2023-04-02T14:27:54.257Z,1.60
2023-04-02T14:30:27.776Z,1.53
2023-04-02T14:33:05.100Z,1.70
2023-04-02T14:35:38.336Z,1.83
2023-04-02T14:38:20.718Z,1.43
2023-04-02T14:40:51.588Z,1.45
2023-04-02T14:43:24.984Z,1.55
2023-04-02T14:46:02.456Z,1.90
2023-04-02T14:48:52.734Z,1.45
2023-04-02T14:51:28.036Z,1.30
2023-04-02T14:54:02.920Z,1.30
2023-04-02T14:56:34.816Z,1.42
2023-04-02T14:59:18.961Z,1.67
2023-04-02T15:01:51.343Z,1.52
2023-04-02T15:04:27.158Z,1.70
2023-04-02T15:07:03.987Z,1.58
2023-04-02T15:09:38.136Z,1.48
2023-04-02T15:12:12.054Z,1.17
2023-04-02T15:14:45.421Z,1.30
2023-04-02T15:17:13.779Z,1.40
2023-04-02T15:20:12.992Z,1.90
2023-04-02T15:22:47.811Z,1.33
2023-04-02T15:25:30.558Z,1.50
2023-04-02T15:28:08.341Z,1.30
2023-04-02T15:30:39.012Z,1.65
2023-04-02T15:33:41.843Z,1.50
2023-04-02T15:36:42.605Z,1.42
2023-04-02T15:39:30.710Z,1.20
2023-04-02T15:42:10.222Z,1.67
2023-04-02T15:44:45.509Z,1.10
2023-04-02T15:47:20.313Z,1.30
2023-04-02T15:49:55.709Z,1.35
2023-04-02T15:52:30.202Z,1.23
2023-04-02T15:55:14.740Z,1.10
2023-04-02T15:58:06.589Z,1.67
2023-04-02T16:00:41.074Z,1.52
2023-04-02T16:03:34.790Z,1.45
2023-04-02T16:06:20.585Z,1.30
2023-04-02T16:09:08.584Z,1.23
2023-04-02T16:11:39.458Z,1.00
2023-04-02T16:14:26.622Z,1.00
2023-04-02T16:16:58.596Z,1.27
2023-04-02T16:19:33.495Z,1.73
2023-04-02T16:22:06.691Z,1.63
2023-04-02T16:24:37.169Z,1.60
2023-04-02T16:27:20.849Z,1.07
2023-04-02T16:30:01.282Z,1.00
2023-04-02T16:32:44.680Z,1.30
2023-04-02T16:38:02.434Z,1.40
2023-04-02T16:40:38.744Z,1.30
2023-04-02T16:43:20.640Z,1.33
2023-04-02T16:45:58.612Z,1.20
2023-04-02T16:48:36.702Z,1.30
2023-04-02T16:51:13.627Z,1.63
2023-04-02T16:54:01.511Z,1.77
2023-04-02T16:56:40.835Z,1.53
2023-04-02T16:59:18.970Z,2.20
2023-04-02T17:01:55.405Z,1.70
2023-04-02T17:04:47.122Z,1.50
2023-04-02T17:07:24.004Z,1.80
2023-04-02T17:09:53.670Z,1.67
2023-04-02T17:12:23.478Z,1.30
2023-04-02T17:14:57.729Z,1.40
2023-04-02T17:17:25.969Z,1.23
2023-04-02T17:19:59.056Z,1.40
2023-04-02T17:22:27.092Z,2.30
2023-04-02T17:24:59.028Z,1.30
2023-04-02T17:27:33.637Z,1.57
2023-04-02T17:30:13.376Z,1.40
2023-04-02T17:32:41.401Z,1.43
2023-04-02T17:35:18.906Z,1.53
2023-04-02T17:37:55.520Z,1.30
2023-04-02T17:40:28.112Z,1.47
2023-04-02T17:43:05.891Z,1.10
2023-04-02T17:45:41.697Z,1.50
2023-04-02T17:48:17.655Z,1.53
2023-04-02T17:51:06.584Z,1.43
2023-04-02T17:53:45.631Z,1.27
2023-04-02T17:56:37.139Z,1.30
2023-04-02T17:59:16.995Z,1.80
2023-04-02T18:01:51.737Z,1.17
2023-04-02T18:04:36.710Z,2.10
2023-04-02T18:07:19.705Z,1.90
2023-04-02T18:09:55.503Z,1.83
2023-04-02T18:12:39.253Z,1.40
2023-04-02T18:15:23.316Z,1.43
2023-04-02T18:17:58.546Z,1.80
2023-04-02T18:20:32.607Z,1.40
2023-04-02T18:23:08.396Z,1.20
2023-04-02T18:26:07.447Z,1.50
2023-04-02T18:28:49.773Z,1.55
2023-04-02T18:31:28.494Z,1.30
2023-04-02T18:34:14.799Z,1.27
2023-04-02T18:36:53.393Z,1.20
2023-04-02T18:39:34.690Z,1.23
2023-04-02T18:42:10.123Z,1.67
2023-04-02T18:44:51.274Z,1.47
2023-04-02T18:47:26.312Z,1.20
2023-04-02T18:50:12.374Z,1.50
2023-04-02T18:52:42.329Z,1.23
2023-04-02T18:55:17.316Z,1.10
2023-04-02T18:57:47.956Z,1.47
2023-04-02T19:00:28.272Z,1.50
2023-04-02T19:03:02.149Z,1.37
2023-04-02T19:05:41.480Z,1.40
2023-04-02T19:08:16.912Z,1.50
2023-04-02T19:10:47.429Z,1.50
2023-04-02T19:13:17.270Z,1.60
2023-04-02T19:16:05.879Z,1.60
2023-04-02T19:19:03.250Z,1.80
2023-04-02T19:21:49.523Z,1.67
2023-04-02T19:24:30.597Z,1.60
2023-04-02T19:27:06.789Z,1.80
2023-04-02T19:29:46.301Z,1.77
2023-04-02T19:32:25.115Z,1.60
2023-04-02T19:35:03.681Z,1.63
2023-04-02T19:37:41.221Z,2.00
2023-04-02T19:40:26.555Z,1.90
2023-04-02T19:42:55.636Z,1.90
2023-04-02T19:45:31.230Z,1.63
2023-04-02T19:48:03.136Z,1.80
2023-04-02T19:50:51.387Z,2.10
2023-04-02T19:53:20.857Z,1.63
2023-04-02T19:55:50.151Z,1.93
2023-04-02T19:58:27.926Z,2.10
2023-04-02T20:00:57.381Z,1.67
2023-04-02T20:03:27.322Z,1.73
2023-04-02T20:05:57.121Z,1.90
2023-04-02T20:08:26.658Z,1.80
2023-04-02T20:10:56.564Z,2.10
2023-04-02T20:13:24.892Z,1.93
2023-04-02T20:15:55.073Z,1.67
2023-04-02T20:18:23.272Z,1.90
2023-04-02T20:20:51.660Z,1.87
2023-04-02T20:23:21.775Z,1.70
2023-04-02T20:25:53.534Z,2.00
2023-04-02T20:28:24.964Z,1.60
2023-04-02T20:30:55.676Z,1.70
2023-04-02T20:33:28.163Z,1.80
2023-04-02T20:36:03.674Z,1.30
2023-04-02T20:38:36.005Z,1.70
2023-04-02T20:41:07.580Z,1.77
2023-04-02T20:43:37.828Z,1.63
2023-04-02T20:46:12.036Z,1.60
2023-04-02T20:48:52.188Z,1.60
2023-04-02T20:51:22.915Z,1.50
2023-04-02T20:53:52.251Z,1.60
2023-04-02T20:56:26.493Z,1.57
2023-04-02T20:59:02.656Z,1.70
2023-04-02T21:01:33.215Z,1.40
2023-04-02T21:04:04.367Z,1.77
2023-04-02T21:06:36.010Z,1.80
2023-04-02T21:09:08.436Z,1.60
2023-04-02T21:11:58.358Z,1.80
2023-04-02T21:14:31.378Z,1.67
2023-04-02T21:17:02.585Z,1.73
2023-04-02T21:19:51.932Z,1.40
2023-04-02T21:22:40.446Z,1.50
2023-04-02T21:25:09.376Z,1.37
2023-04-02T21:27:59.683Z,1.57
2023-04-02T21:30:30.501Z,1.50
2023-04-02T21:33:01.817Z,1.30
2023-04-02T21:35:30.090Z,1.30
2023-04-02T21:38:01.101Z,1.30
2023-04-02T21:40:29.874Z,1.50
2023-04-02T21:43:00.538Z,1.30
2023-04-02T21:45:31.613Z,1.13
2023-04-02T21:48:01.120Z,1.77
2023-04-02T21:50:29.804Z,1.00
2023-04-02T21:52:58.024Z,1.30
2023-04-02T21:55:26.900Z,1.37
2023-04-02T21:57:56.961Z,1.40
2023-04-02T22:00:27.892Z,1.23
2023-04-02T22:02:56.189Z,1.30
2023-04-02T22:05:24.848Z,1.00
2023-04-02T22:07:55.043Z,1.10
2023-04-02T22:10:23.099Z,1.27
2023-04-02T22:12:53.028Z,1.57
2023-04-02T22:15:21.633Z,1.07
2023-04-02T22:17:51.688Z,1.23
2023-04-02T22:20:22.248Z,1.50
2023-04-02T22:22:51.450Z,1.30
2023-04-02T22:25:20.048Z,1.10
2023-04-02T22:27:48.156Z,1.10
2023-04-02T22:30:16.493Z,1.33
2023-04-02T22:32:45.387Z,1.50
2023-04-02T22:35:17.239Z,1.07
2023-04-02T22:37:46.931Z,1.40
2023-04-02T22:40:15.647Z,1.27
2023-04-02T22:42:52.299Z,1.23
2023-04-02T22:45:21.270Z,1.33
2023-04-02T22:48:09.256Z,1.27
2023-04-02T22:50:41.595Z,1.03
2023-04-02T22:53:11.860Z,1.10
2023-04-02T22:55:40.208Z,1.30
2023-04-02T22:58:08.863Z,1.20
2023-04-02T23:00:38.717Z,1.40
2023-04-02T23:03:07.036Z,1.67
2023-04-02T23:05:38.469Z,1.23
2023-04-02T23:08:07.349Z,1.20
2023-04-02T23:10:36.490Z,1.13
2023-04-02T23:13:05.398Z,1.10
2023-04-02T23:15:36.100Z,1.10
2023-04-02T23:18:07.230Z,1.10
2023-04-02T23:20:41.723Z,1.27
2023-04-02T23:23:09.768Z,1.40
2023-04-02T23:25:38.312Z,1.30
2023-04-02T23:28:06.554Z,1.20
2023-04-02T23:30:36.021Z,1.33
2023-04-02T23:33:07.684Z,1.07
2023-04-02T23:35:37.254Z,1.17
2023-04-02T23:38:07.873Z,1.30
2023-04-02T23:40:36.324Z,1.30
2023-04-02T23:43:05.810Z,1.20
2023-04-02T23:45:34.033Z,1.23
2023-04-02T23:48:02.601Z,1.10
2023-04-02T23:50:31.084Z,1.10
2023-04-02T23:53:00.543Z,1.03
2023-04-02T23:55:30.005Z,1.20
2023-04-02T23:57:58.655Z,1.13
